Time;durP1;ratioP1;P1;durP2;ratioP2;P2;SDS_P1;SDS_P2;PMS_P1;PMS_P2;Temp;Humidity;BMP_temperature;BMP_pressure;BME280_temperature;BME280_humidity;BME280_pressure;Samples;Min_cycle;Max_cycle;Signal;HPM_P1;HPM_P2
2021/06/30 00:01:16;;;;;;;13.30;11.40;;;;;;;27.58;100.00;100730.75;4849861;29;20029;-76
2021/06/30 00:04:01;;;;;;;13.85;10.23;;;;;;;27.55;100.00;100731.00;4861977;29;20082;-76
2021/06/30 00:06:48;;;;;;;12.80;10.68;;;;;;;27.48;100.00;100730.69;4862639;29;20025;-75
2021/06/30 00:09:33;;;;;;;12.63;11.15;;;;;;;27.38;100.00;100737.00;4861875;29;20034;-76
2021/06/30 00:12:19;;;;;;;13.13;11.75;;;;;;;27.58;100.00;100739.66;4862045;29;20033;-75
2021/06/30 00:15:21;;;;;;;12.65;11.00;;;;;;;27.39;100.00;100752.16;4861625;29;20435;-76
2021/06/30 00:18:08;;;;;;;14.25;11.25;;;;;;;27.47;100.00;100755.03;4861889;29;20025;-76
2021/06/30 00:20:54;;;;;;;15.32;12.75;;;;;;;27.27;100.00;100758.59;4861770;29;20065;-75
2021/06/30 00:23:40;;;;;;;17.77;13.10;;;;;;;27.05;100.00;100753.31;4848949;29;20025;-76
2021/06/30 00:26:26;;;;;;;17.80;14.35;;;;;;;26.77;100.00;100757.47;4861702;29;20370;-75
2021/06/30 00:29:11;;;;;;;18.10;13.93;;;;;;;26.52;100.00;100757.78;4862192;29;20029;-75
2021/06/30 00:31:57;;;;;;;17.00;13.25;;;;;;;26.56;100.00;100763.78;4861540;29;20042;-76
2021/06/30 00:34:43;;;;;;;14.50;13.05;;;;;;;26.92;100.00;100766.06;4861936;29;20034;-76
2021/06/30 00:37:29;;;;;;;15.75;12.75;;;;;;;26.71;100.00;100765.19;4861437;29;20128;-75
2021/06/30 00:40:15;;;;;;;15.63;12.25;;;;;;;26.69;100.00;100767.16;4862204;29;20037;-76
2021/06/30 00:43:01;;;;;;;14.00;11.80;;;;;;;26.94;100.00;100764.13;4848919;29;20048;-76
2021/06/30 00:45:49;;;;;;;13.88;11.20;;;;;;;26.96;100.00;100765.69;4862308;29;20050;-75
2021/06/30 00:48:35;;;;;;;11.98;10.73;;;;;;;27.06;100.00;100772.03;4861607;29;20048;-75
2021/06/30 00:51:22;;;;;;;13.75;11.23;;;;;;;27.16;100.00;100766.69;4849455;29;20061;-75
2021/06/30 00:54:08;;;;;;;13.75;11.27;;;;;;;27.24;100.00;100766.91;4849242;29;20109;-76
2021/06/30 00:56:54;;;;;;;13.07;10.85;;;;;;;27.18;100.00;100765.59;4861397;29;20033;-76
2021/06/30 00:59:40;;;;;;;13.65;11.07;;;;;;;27.03;100.00;100760.66;4862408;29;20022;-75
2021/06/30 01:02:26;;;;;;;11.82;10.63;;;;;;;27.18;100.00;100762.91;4861274;29;20374;-75
2021/06/30 01:05:12;;;;;;;12.65;11.25;;;;;;;27.13;100.00;100769.66;4862253;29;20033;-76
2021/06/30 01:07:58;;;;;;;11.98;10.77;;;;;;;27.30;100.00;100769.97;4861257;29;20033;-75
2021/06/30 01:10:43;;;;;;;13.57;10.70;;;;;;;27.23;100.00;100771.47;4849425;29;20045;-76
2021/06/30 01:13:29;;;;;;;14.90;11.57;;;;;;;27.09;100.00;100770.91;4848316;29;20034;-75
2021/06/30 01:16:15;;;;;;;14.65;12.20;;;;;;;26.92;100.00;100772.31;4864847;29;20108;-76
2021/06/30 01:19:02;;;;;;;15.30;13.65;;;;;;;26.62;100.00;100763.28;4865564;29;20037;-75
2021/06/30 01:21:50;;;;;;;17.95;14.18;;;;;;;26.32;100.00;100774.69;4865207;29;20025;-75
2021/06/30 01:24:36;;;;;;;16.08;14.38;;;;;;;26.62;100.00;100780.28;4851618;29;20037;-76
2021/06/30 01:27:29;;;;;;;19.75;15.23;;;;;;;26.44;100.00;100783.59;4864625;29;20084;-76
2021/06/30 01:30:15;;;;;;;23.35;15.60;;;;;;;26.13;100.00;100781.69;4865109;29;20032;-76
2021/06/30 01:33:01;;;;;;;16.83;14.93;;;;;;;26.29;100.00;100779.47;4864150;29;20065;-76
2021/06/30 01:35:47;;;;;;;17.75;15.73;;;;;;;25.97;100.00;100789.25;4864865;29;20056;-75
2021/06/30 01:38:33;;;;;;;19.42;15.57;;;;;;;26.04;100.00;100785.94;4864161;29;20033;-76
2021/06/30 01:41:19;;;;;;;19.02;16.83;;;;;;;26.21;100.00;100779.22;4864692;29;20119;-76
2021/06/30 01:44:05;;;;;;;19.40;15.70;;;;;;;25.99;100.00;100780.09;4864324;29;20053;-76
2021/06/30 01:46:51;;;;;;;17.10;14.93;;;;;;;25.85;100.00;100787.50;4864081;29;20044;-76
2021/06/30 01:49:40;;;;;;;18.17;15.98;;;;;;;25.70;100.00;100784.22;4863951;29;20431;-75
2021/06/30 01:52:29;;;;;;;19.45;15.40;;;;;;;25.82;100.00;100793.97;4865174;29;20407;-75
2021/06/30 01:55:15;;;;;;;17.85;15.30;;;;;;;25.89;100.00;100799.72;4863994;29;20471;-75
2021/06/30 01:58:01;;;;;;;18.17;15.98;;;;;;;25.71;100.00;100788.59;4852098;29;20025;-75
2021/06/30 02:00:55;;;;;;;16.95;15.15;;;;;;;25.68;100.00;100793.38;4864064;29;20047;-76
2021/06/30 02:03:40;;;;;;;17.63;15.02;;;;;;;25.92;100.00;100783.38;4863675;29;20056;-75
2021/06/30 02:06:28;;;;;;;17.25;15.43;;;;;;;26.02;100.00;100781.69;4864352;29;20033;-76
2021/06/30 02:09:14;;;;;;;20.38;14.73;;;;;;;25.55;100.00;100785.41;4851625;29;20033;-76
2021/06/30 02:12:00;;;;;;;16.30;14.52;;;;;;;25.92;100.00;100788.75;4864185;29;20033;-76
2021/06/30 02:14:46;;;;;;;18.23;14.70;;;;;;;25.90;100.00;100794.22;4851512;29;20030;-76
2021/06/30 02:17:32;;;;;;;18.83;13.18;;;;;;;25.87;100.00;100791.78;4863868;29;20029;-75
2021/06/30 02:20:19;;;;;;;18.75;12.55;;;;;;;25.96;100.00;100792.94;4850448;29;20455;-75
2021/06/30 02:23:05;;;;;;;15.10;12.30;;;;;;;25.99;100.00;100796.22;4863519;29;20033;-76
2021/06/30 02:25:51;;;;;;;14.57;12.55;;;;;;;25.92;100.00;100800.31;4863137;29;20057;-76
2021/06/30 02:28:38;;;;;;;15.15;11.68;;;;;;;25.92;100.00;100808.38;4864484;29;20044;-76
2021/06/30 02:31:23;;;;;;;15.10;12.07;;;;;;;25.82;100.00;100795.81;4864130;29;20375;-76
2021/06/30 02:34:09;;;;;;;14.02;12.07;;;;;;;25.79;100.00;100804.09;4863777;29;20029;-76
2021/06/30 02:36:55;;;;;;;15.80;11.52;;;;;;;25.92;100.00;100800.31;4863922;29;20079;-76
2021/06/30 02:39:41;;;;;;;15.50;11.82;;;;;;;26.11;100.00;100799.72;4863223;29;20532;-76
2021/06/30 02:42:27;;;;;;;15.38;12.40;;;;;;;25.99;100.00;100806.06;4863339;29;20068;-76
2021/06/30 02:45:15;;;;;;;13.60;12.20;;;;;;;25.64;100.00;100803.47;4862632;29;20391;-76
2021/06/30 02:48:01;;;;;;;13.43;11.80;;;;;;;25.92;100.00;100813.75;4863581;29;20029;-76
2021/06/30 02:50:47;;;;;;;14.98;12.55;;;;;;;25.89;100.00;100814.00;4862788;29;20029;-76
2021/06/30 02:53:32;;;;;;;18.17;13.00;;;;;;;25.95;100.00;100807.31;4849807;29;20033;-75
2021/06/30 02:56:21;;;;;;;14.05;11.88;;;;;;;26.04;100.00;100806.59;4849819;29;20459;-75
2021/06/30 02:59:07;;;;;;;14.60;12.15;;;;;;;25.98;100.00;100807.94;4851439;29;20033;-76
2021/06/30 03:01:53;;;;;;;15.13;11.88;;;;;;;25.97;100.00;100806.22;4850771;29;20033;-76
2021/06/30 03:04:38;;;;;;;14.30;12.75;;;;;;;25.96;100.00;100795.59;4862855;29;20033;-76
2021/06/30 03:07:24;;;;;;;18.00;12.57;;;;;;;26.00;100.00;100811.34;4862686;29;20029;-76
2021/06/30 03:10:12;;;;;;;17.15;13.10;;;;;;;26.00;100.00;100807.81;4863191;29;20329;-76
2021/06/30 03:12:58;;;;;;;15.40;12.70;;;;;;;26.04;100.00;100811.97;4863139;29;20044;-76
2021/06/30 03:15:44;;;;;;;17.75;13.25;;;;;;;25.90;100.00;100814.84;4863003;29;20040;-76
2021/06/30 03:18:30;;;;;;;14.23;12.52;;;;;;;25.81;100.00;100815.56;4863464;29;20466;-76
2021/06/30 03:21:15;;;;;;;16.73;12.75;;;;;;;26.09;100.00;100810.63;4862239;29;20030;-76
2021/06/30 03:24:01;;;;;;;14.77;12.30;;;;;;;26.08;100.00;100814.25;4862471;29;20021;-76
2021/06/30 03:26:47;;;;;;;16.63;12.75;;;;;;;25.95;100.00;100810.84;4850310;29;20097;-76
2021/06/30 03:29:33;;;;;;;15.20;13.60;;;;;;;26.03;100.00;100804.84;4862879;29;20021;-76
2021/06/30 03:32:19;;;;;;;17.52;13.70;;;;;;;26.19;100.00;100806.22;4861291;29;20097;-76
2021/06/30 03:35:07;;;;;;;19.52;14.13;;;;;;;26.36;100.00;100808.38;4862525;29;20041;-76
2021/06/30 03:37:53;;;;;;;16.15;14.00;;;;;;;26.42;100.00;100805.22;4861328;29;20029;-76
2021/06/30 03:40:39;;;;;;;21.50;14.05;;;;;;;26.51;100.00;100814.34;4861775;29;20478;-76
2021/06/30 03:43:25;;;;;;;16.98;13.00;;;;;;;26.73;100.00;100817.00;4862477;29;20360;-76
2021/06/30 03:46:11;;;;;;;19.60;14.10;;;;;;;26.37;100.00;100810.06;4862143;29;20029;-75
2021/06/30 03:48:57;;;;;;;19.95;13.43;;;;;;;26.34;100.00;100809.47;4850317;29;20037;-75
2021/06/30 03:51:43;;;;;;;19.38;13.90;;;;;;;26.38;100.00;100813.63;4861995;29;20037;-75
2021/06/30 03:54:29;;;;;;;17.63;12.63;;;;;;;26.41;100.00;100813.38;4862098;29;20186;-75
2021/06/30 03:57:15;;;;;;;15.45;12.18;;;;;;;26.65;100.00;100819.47;4861913;29;20371;-75
2021/06/30 04:00:03;;;;;;;16.65;11.48;;;;;;;26.54;100.00;100812.28;4850544;29;20165;-75
2021/06/30 04:02:49;;;;;;;12.63;10.50;;;;;;;26.49;100.00;100816.31;4861893;29;20030;-76
2021/06/30 04:05:35;;;;;;;15.35;11.85;;;;;;;26.65;100.00;100816.78;4862898;29;20041;-75
2021/06/30 04:08:21;;;;;;;13.55;11.23;;;;;;;26.70;100.00;100817.25;4850044;29;20040;-75
2021/06/30 04:11:06;;;;;;;16.33;10.90;;;;;;;26.90;100.00;100816.47;4848917;29;20431;-75
2021/06/30 04:13:52;;;;;;;14.00;11.65;;;;;;;27.05;100.00;100816.03;4862255;29;20033;-75
2021/06/30 04:16:38;;;;;;;17.65;13.27;;;;;;;27.07;100.00;100824.84;4862550;29;20116;-75
2021/06/30 04:19:24;;;;;;;15.73;13.98;;;;;;;26.65;100.00;100814.09;4850073;29;20095;-76
2021/06/30 04:22:09;;;;;;;17.80;13.48;;;;;;;26.54;100.00;100808.72;4861821;29;20025;-76
2021/06/30 04:24:55;;;;;;;17.52;13.50;;;;;;;26.51;100.00;100801.75;4862458;29;20018;-75
2021/06/30 04:27:41;;;;;;;16.67;13.05;;;;;;;26.77;100.00;100794.28;4861215;29;20045;-76
2021/06/30 04:30:27;;;;;;;17.45;14.20;;;;;;;26.62;100.00;100798.22;4861271;29;20033;-76
2021/06/30 04:33:12;;;;;;;16.35;13.90;;;;;;;26.87;100.00;100811.34;4861349;29;20037;-75
2021/06/30 04:35:58;;;;;;;17.83;14.43;;;;;;;26.90;100.00;100806.56;4862049;29;20041;-76
2021/06/30 04:38:44;;;;;;;23.80;14.30;;;;;;;26.88;100.00;100800.44;4849509;29;20044;-76
2021/06/30 04:41:30;;;;;;;20.02;14.18;;;;;;;27.18;100.00;100808.66;4862027;29;20093;-76
2021/06/30 04:44:16;;;;;;;20.13;14.82;;;;;;;26.90;100.00;100803.88;4861194;29;20379;-75
2021/06/30 04:47:02;;;;;;;16.92;14.68;;;;;;;26.82;100.00;100800.97;4849933;29;20034;-76
2021/06/30 04:49:48;;;;;;;19.15;14.52;;;;;;;26.86;100.00;100807.81;4851918;29;20371;-76
2021/06/30 04:52:34;;;;;;;16.80;14.20;;;;;;;27.14;100.00;100803.66;4865459;29;20021;-76
2021/06/30 04:55:19;;;;;;;16.33;13.52;;;;;;;27.22;100.00;100807.44;4852357;29;20448;-75
2021/06/30 04:58:07;;;;;;;17.77;13.55;;;;;;;27.18;100.00;100807.78;4864906;29;20038;-76
2021/06/30 05:00:56;;;;;;;16.95;13.98;;;;;;;27.57;100.00;100793.66;4853343;29;20030;-76
2021/06/30 05:03:42;;;;;;;19.08;13.65;;;;;;;27.63;100.00;100803.88;4864765;29;20120;-76
2021/06/30 05:06:27;;;;;;;22.40;15.50;;;;;;;27.81;100.00;100801.41;4864500;29;20029;-76
2021/06/30 05:09:13;;;;;;;17.98;13.77;;;;;;;27.85;100.00;100805.59;4864582;29;20476;-76
2021/06/30 05:11:59;;;;;;;18.20;13.05;;;;;;;27.83;100.00;100812.94;4852926;29;20352;-76
2021/06/30 05:14:45;;;;;;;49.63;16.75;;;;;;;28.10;100.00;100810.53;4864499;29;20110;-76
2021/06/30 05:17:31;;;;;;;16.45;12.98;;;;;;;28.21;100.00;100813.94;4865245;29;20041;-75
2021/06/30 05:20:17;;;;;;;35.55;14.48;;;;;;;28.26;100.00;100809.03;4864481;29;20029;-75
2021/06/30 05:23:03;;;;;;;22.35;14.00;;;;;;;28.41;100.00;100809.50;4865052;29;20104;-75
2021/06/30 05:25:49;;;;;;;18.13;13.55;;;;;;;28.39;100.00;100809.63;4851353;29;20041;-75
2021/06/30 05:28:35;;;;;;;21.55;14.38;;;;;;;28.21;100.00;100803.16;4864430;29;20026;-75
2021/06/30 05:31:20;;;;;;;18.83;12.57;;;;;;;28.47;100.00;100812.53;4851214;29;20093;-75
2021/06/30 05:34:06;;;;;;;22.73;15.18;;;;;;;28.70;100.00;100805.03;4864134;29;20040;-75
2021/06/30 05:36:52;;;;;;;18.67;14.32;;;;;;;28.68;100.00;100807.03;4864372;29;20077;-75
2021/06/30 05:39:38;;;;;;;19.15;12.68;;;;;;;28.88;100.00;100806.91;4863921;29;20101;-76
2021/06/30 05:42:24;;;;;;;23.77;19.50;;;;;;;29.07;100.00;100803.41;4864219;29;20022;-75
2021/06/30 05:45:15;;;;;;;22.65;15.70;;;;;;;28.95;100.00;100810.75;4863790;29;20065;-76
2021/06/30 05:48:01;;;;;;;18.60;15.10;;;;;;;28.86;100.00;100803.50;4864248;29;20057;-75
2021/06/30 05:50:47;;;;;;;18.20;14.48;;;;;;;28.80;100.00;100812.16;4863981;29;20088;-75
2021/06/30 05:53:32;;;;;;;15.45;12.00;;;;;;;28.56;100.00;100811.69;4851868;29;20573;-75
2021/06/30 05:56:19;;;;;;;14.77;11.60;;;;;;;29.05;100.00;100810.78;4864404;29;20363;-75
2021/06/30 05:59:05;;;;;;;13.13;11.82;;;;;;;29.49;100.00;100821.00;4864047;29;20116;-76
2021/06/30 06:01:51;;;;;;;14.88;11.15;;;;;;;28.94;100.00;100822.53;4863293;29;20029;-76
2021/06/30 06:04:36;;;;;;;14.98;11.75;;;;;;;29.42;100.00;100823.41;4864164;29;20160;-76
2021/06/30 06:07:22;;;;;;;13.45;11.77;;;;;;;29.67;100.00;100832.78;4864404;29;20043;-75
2021/06/30 06:10:10;;;;;;;14.73;11.73;;;;;;;29.45;100.00;100824.97;4863689;29;20104;-75
2021/06/30 06:12:56;;;;;;;15.63;11.80;;;;;;;29.38;100.00;100831.94;4863147;29;20026;-75
2021/06/30 06:15:42;;;;;;;13.63;11.15;;;;;;;29.85;100.00;100826.47;4863555;29;20033;-75
2021/06/30 06:18:28;;;;;;;11.93;10.23;;;;;;;30.19;100.00;100832.22;4864150;29;20033;-75
2021/06/30 06:21:13;;;;;;;27.08;12.45;;;;;;;30.31;100.00;100825.63;4851236;29;20101;-75
2021/06/30 06:23:59;;;;;;;14.60;11.60;;;;;;;29.77;100.00;100822.81;4831693;29;20387;-73
2021/06/30 06:26:47;;;;;;;21.90;12.90;;;;;;;30.39;100.00;100820.31;4838268;29;20029;-74
2021/06/30 06:29:36;;;;;;;21.52;12.10;;;;;;;30.16;100.00;100814.44;4839537;29;20085;-75
2021/06/30 06:32:22;;;;;;;15.15;11.95;;;;;;;30.56;100.00;100812.22;4850635;29;20033;-75
2021/06/30 06:35:09;;;;;;;14.02;11.68;;;;;;;29.93;100.00;100813.06;4849294;29;20038;-75
2021/06/30 06:37:55;;;;;;;17.70;13.02;;;;;;;30.49;100.00;100813.84;4850894;29;20049;-75
2021/06/30 06:40:41;;;;;;;13.88;11.77;;;;;;;30.59;100.00;100811.94;4851131;29;20097;-75
2021/06/30 06:43:27;;;;;;;15.55;11.23;;;;;;;30.70;100.00;100810.91;4851896;29;20096;-74
2021/06/30 06:46:12;;;;;;;17.17;12.95;;;;;;;30.86;100.00;100808.38;4851441;29;20355;-73
2021/06/30 06:48:58;;;;;;;14.75;13.05;;;;;;;30.45;100.00;100811.56;4839650;29;20041;-74
2021/06/30 06:51:44;;;;;;;23.02;14.35;;;;;;;30.76;100.00;100807.56;4853293;29;20029;-73
2021/06/30 06:54:30;;;;;;;19.35;14.15;;;;;;;30.64;100.00;100797.94;4836218;29;20348;-74
2021/06/30 06:57:16;;;;;;;20.67;13.77;;;;;;;31.17;100.00;100810.53;4851549;29;20045;-74
2021/06/30 07:00:03;;;;;;;20.60;13.85;;;;;;;30.83;100.00;100809.50;4851526;29;20124;-73
2021/06/30 07:02:49;;;;;;;15.82;13.65;;;;;;;30.70;100.00;100800.91;4852393;29;20045;-73
2021/06/30 07:05:35;;;;;;;17.67;13.50;;;;;;;30.83;100.00;100805.97;4853737;29;20033;-74
2021/06/30 07:08:21;;;;;;;14.82;12.98;;;;;;;30.98;100.00;100807.13;4851090;29;20037;-75
2021/06/30 07:11:10;;;;;;;16.20;12.75;;;;;;;31.11;100.00;100802.16;4838179;29;20041;-76
2021/06/30 07:13:57;;;;;;;14.70;13.25;;;;;;;31.33;100.00;100807.97;4854217;29;20471;-76
2021/06/30 07:16:43;;;;;;;16.40;12.60;;;;;;;31.39;100.00;100801.91;4852225;29;20040;-75
2021/06/30 07:19:28;;;;;;;17.83;13.68;;;;;;;31.45;100.00;100808.56;4853112;29;20137;-74
2021/06/30 07:22:14;;;;;;;17.75;13.43;;;;;;;31.99;100.00;100810.16;4852647;29;20029;-77
2021/06/30 07:25:01;;;;;;;16.55;12.68;;;;;;;31.99;100.00;100807.44;4851403;29;20105;-76
2021/06/30 07:27:46;;;;;;;14.30;12.27;;;;;;;32.16;100.00;100795.66;4851377;29;20648;-76
2021/06/30 07:30:33;;;;;;;15.15;12.80;;;;;;;32.58;100.00;100799.25;4836760;29;20079;-76
2021/06/30 07:33:19;;;;;;;25.38;12.35;;;;;;;32.53;100.00;100793.44;4838594;29;20136;-77
2021/06/30 07:36:06;;;;;;;29.17;13.25;;;;;;;32.30;100.00;100795.09;4839115;29;20033;-75
2021/06/30 07:38:52;;;;;;;15.32;12.23;;;;;;;32.41;100.00;100786.63;4850969;29;20720;-75
2021/06/30 07:41:37;;;;;;;12.60;11.27;;;;;;;32.50;100.00;100788.38;4837735;29;20033;-75
2021/06/30 07:44:23;;;;;;;17.45;11.48;;;;;;;32.50;100.00;100783.78;4832329;29;20132;-76
2021/06/30 07:47:10;;;;;;;14.68;11.57;;;;;;;32.76;100.00;100789.09;4836297;29;20069;-75
2021/06/30 07:49:57;;;;;;;13.23;10.70;;;;;;;32.84;100.00;100781.88;4837380;29;20395;-76
2021/06/30 07:52:45;;;;;;;12.98;11.68;;;;;;;33.52;100.00;100785.97;4840060;29;20038;-75
2021/06/30 07:55:32;;;;;;;13.00;11.70;;;;;;;33.94;100.00;100785.72;4826783;29;20037;-75
2021/06/30 07:58:19;;;;;;;18.60;11.77;;;;;;;34.00;100.00;100776.88;4829164;29;20037;-75
2021/06/30 08:01:05;;;;;;;17.40;11.90;;;;;;;34.03;100.00;100779.25;4827027;29;20038;-75
2021/06/30 08:03:51;;;;;;;17.35;11.88;;;;;;;33.78;100.00;100770.28;4835092;29;20037;-75
2021/06/30 08:06:37;;;;;;;19.20;12.27;;;;;;;33.74;100.00;100779.78;4834728;29;20098;-75
2021/06/30 08:09:22;;;;;;;16.00;11.90;;;;;;;33.59;100.00;100780.69;4825812;29;20383;-74
2021/06/30 08:12:08;;;;;;;17.98;14.40;;;;;;;33.89;100.00;100777.25;4827363;29;20045;-75
2021/06/30 08:14:54;;;;;;;15.77;12.35;;;;;;;34.20;100.00;100776.25;4834232;29;20057;-74
2021/06/30 08:17:40;;;;;;;16.20;11.98;;;;;;;34.04;100.00;100783.66;4839878;29;20026;-75
2021/06/30 08:20:28;;;;;;;18.25;13.90;;;;;;;33.73;100.00;100779.97;4833971;29;20744;-74
2021/06/30 08:23:14;;;;;;;20.38;14.27;;;;;;;33.40;100.00;100789.19;4843957;29;20049;-76
2021/06/30 08:26:00;;;;;;;16.50;14.38;;;;;;;34.29;100.00;100780.66;4841454;29;20842;-74
2021/06/30 08:28:47;;;;;;;19.05;14.50;;;;;;;34.42;100.00;100780.09;4828114;29;20478;-74
2021/06/30 08:31:32;;;;;;;21.02;13.48;;;;;;;34.81;100.00;100779.06;4836046;29;20141;-75
2021/06/30 08:34:18;;;;;;;22.42;14.88;;;;;;;35.19;100.00;100778.06;4837745;29;20475;-75
2021/06/30 08:37:06;;;;;;;29.55;22.30;;;;;;;34.83;100.00;100767.97;4844025;29;20033;-74
2021/06/30 08:39:54;;;;;;;24.38;18.30;;;;;;;35.18;100.00;100770.94;4830339;29;20046;-75
2021/06/30 08:42:43;;;;;;;21.20;14.25;;;;;;;34.41;100.00;100760.22;4847204;29;20257;-75
2021/06/30 08:45:29;;;;;;;18.77;16.15;;;;;;;34.87;92.39;100761.97;4851644;29;20054;-74
2021/06/30 08:48:16;;;;;;;20.40;12.05;;;;;;;35.17;96.89;100760.22;4850249;29;20038;-74
2021/06/30 08:51:12;;;;;;;15.02;11.23;;;;;;;36.08;94.90;100764.41;4853653;29;20041;-74
2021/06/30 08:54:01;;;;;;;14.43;11.18;;;;;;;35.70;94.43;100764.66;4841143;29;20352;-74
2021/06/30 08:56:48;;;;;;;15.80;12.05;;;;;;;35.98;87.91;100766.59;4853202;29;20033;-73
2021/06/30 08:59:34;;;;;;;17.77;14.45;;;;;;;35.91;79.95;100757.44;4852369;29;20106;-74
2021/06/30 09:02:20;;;;;;;12.05;10.55;;;;;;;35.98;78.88;100758.41;4851940;29;20034;-74
2021/06/30 09:05:13;;;;;;;11.73;9.50;;;;;;;36.45;78.06;100768.91;4853589;29;20030;-73
2021/06/30 09:07:59;;;;;;;17.67;12.50;;;;;;;36.71;84.99;100769.22;4859630;29;20041;-74
2021/06/30 09:10:44;;;;;;;22.92;14.23;;;;;;;36.62;92.27;100765.75;4850468;29;20033;-74
2021/06/30 09:13:32;;;;;;;32.67;12.90;;;;;;;36.80;88.66;100768.09;4863140;29;20034;-74
2021/06/30 09:16:18;;;;;;;15.50;11.65;;;;;;;36.12;88.90;100754.78;4863908;29;20112;-74
2021/06/30 09:19:04;;;;;;;15.23;12.05;;;;;;;35.99;92.85;100767.44;4851317;29;20189;-74
2021/06/30 09:21:58;;;;;;;16.67;12.18;;;;;;;36.09;94.00;100754.34;4863585;29;20022;-75
2021/06/30 09:24:45;;;;;;;16.92;12.00;;;;;;;35.75;96.23;100754.91;4863592;29;20519;-76
2021/06/30 09:27:44;;;;;;;13.35;12.07;;;;;;;35.64;94.68;100755.38;4864063;29;20052;-76
2021/06/30 09:30:30;;;;;;;14.55;11.75;;;;;;;36.14;92.31;100754.59;4863422;29;20025;-76
2021/06/30 09:33:16;;;;;;;15.65;11.25;;;;;;;36.43;90.14;100746.44;4862537;29;20029;-74
2021/06/30 09:36:04;;;;;;;14.63;12.95;;;;;;;36.24;96.07;100752.47;4861986;29;20041;-75
2021/06/30 09:38:51;;;;;;;9.48;8.55;;;;;;;36.32;74.39;100750.47;4863243;29;20124;-75
2021/06/30 09:41:44;;;;;;;12.65;10.38;;;;;;;36.91;75.47;100746.53;4863560;29;20056;-75
2021/06/30 09:44:31;;;;;;;10.32;8.95;;;;;;;36.55;69.73;100742.97;4863384;29;20045;-78
2021/06/30 09:47:18;;;;;;;13.30;10.75;;;;;;;36.91;71.42;100745.69;4864367;29;20029;-78
2021/06/30 09:50:05;;;;;;;9.48;7.85;;;;;;;36.82;62.42;100738.66;4849621;29;20033;-77
2021/06/30 09:52:50;;;;;;;12.77;10.10;;;;;;;36.61;70.86;100736.75;4862437;29;20112;-78
2021/06/30 09:55:36;;;;;;;10.63;8.05;;;;;;;36.82;64.49;100738.66;4861907;29;20408;-78
2021/06/30 09:58:31;;;;;;;8.48;7.70;;;;;;;37.17;57.14;100730.41;4863163;29;20485;-76
2021/06/30 10:01:20;;;;;;;31.70;9.10;;;;;;;37.38;60.31;100733.13;4851207;29;20033;-76
2021/06/30 10:04:10;;;;;;;11.75;10.38;;;;;;;37.30;71.01;100727.81;4864291;29;20039;-77
2021/06/30 10:07:01;;;;;;;16.10;10.70;;;;;;;36.30;76.93;100724.41;4850550;29;20037;-77
2021/06/30 10:09:47;;;;;;;13.45;10.93;;;;;;;36.16;79.04;100725.25;4863793;29;20037;-76
2021/06/30 10:12:39;;;;;;;17.42;10.35;;;;;;;36.56;80.95;100732.91;4862091;29;20049;-76
2021/06/30 10:15:25;;;;;;;11.77;10.68;;;;;;;36.46;75.24;100719.56;4849749;29;20076;-77
2021/06/30 10:18:11;;;;;;;15.35;12.48;;;;;;;36.37;83.02;100715.28;4863033;29;20037;-77
2021/06/30 10:20:57;;;;;;;15.90;12.07;;;;;;;36.78;77.30;100710.06;4862778;29;20033;-77
2021/06/30 10:23:43;;;;;;;12.35;10.43;;;;;;;36.59;73.76;100711.53;4862989;29;20029;-76
2021/06/30 10:26:29;;;;;;;13.48;10.48;;;;;;;36.44;79.58;100709.88;4863409;29;20033;-76
2021/06/30 10:29:16;;;;;;;37.13;30.40;;;;;;;36.98;76.43;100714.66;4850428;29;20038;-76
2021/06/30 10:32:11;;;;;;;17.27;15.15;;;;;;;36.73;73.25;100715.25;4850340;29;20471;-76
2021/06/30 10:35:05;;;;;;;18.67;13.02;;;;;;;36.84;66.17;100704.66;4863897;29;20439;-76
2021/06/30 10:37:53;;;;;;;10.93;9.68;;;;;;;37.11;68.32;100700.25;4863014;29;20036;-76
2021/06/30 10:40:39;;;;;;;13.57;8.77;;;;;;;36.99;64.02;100699.97;4850827;29;20397;-75
2021/06/30 10:43:25;;;;;;;14.05;9.55;;;;;;;37.21;63.83;100695.34;4864505;29;20116;-75
2021/06/30 10:46:37;;;;;;;10.48;9.38;;;;;;;37.21;64.50;100696.16;4863639;29;20032;-76
2021/06/30 10:49:30;;;;;;;11.95;8.77;;;;;;;37.36;59.03;100694.19;4863445;29;20062;-76
2021/06/30 10:52:24;;;;;;;9.88;8.88;;;;;;;37.40;58.71;100694.66;4863640;29;20115;-76
2021/06/30 10:55:40;;;;;;;9.68;8.27;;;;;;;37.35;57.93;100699.84;4863401;29;20129;-76
2021/06/30 10:58:31;;;;;;;9.45;8.55;;;;;;;37.52;58.39;100682.09;4863727;29;20348;-75
2021/06/30 11:01:18;;;;;;;12.57;9.50;;;;;;;37.17;63.50;100683.94;4863284;29;20348;-75
2021/06/30 11:04:04;;;;;;;10.35;9.35;;;;;;;37.41;60.67;100675.28;4862666;29;20067;-76
2021/06/30 11:06:49;;;;;;;14.93;8.70;;;;;;;37.48;58.80;100676.19;4864641;29;20041;-75
2021/06/30 11:09:35;;;;;;;9.20;8.30;;;;;;;37.75;55.82;100669.84;4863808;29;20029;-76
2021/06/30 11:12:21;;;;;;;11.18;8.73;;;;;;;38.04;56.37;100664.09;4863670;29;20030;-75
2021/06/30 11:15:08;;;;;;;8.75;7.85;;;;;;;37.74;51.79;100659.97;4850156;29;20040;-75
2021/06/30 11:17:53;;;;;;;8.35;7.50;;;;;;;38.27;46.75;100656.41;4865395;29;20039;-75
2021/06/30 11:20:46;;;;;;;7.68;6.97;;;;;;;38.31;43.92;100660.41;4863531;29;20136;-76
2021/06/30 11:23:40;;;;;;;10.52;7.47;;;;;;;37.35;44.71;100656.97;4863139;29;20367;-75
2021/06/30 11:26:37;;;;;;;8.63;7.65;;;;;;;37.58;46.35;100649.31;4863053;29;20033;-75
2021/06/30 11:29:44;;;;;;;8.30;7.47;;;;;;;37.95;45.26;100658.97;4864509;29;20036;-76
2021/06/30 11:32:36;;;;;;;9.50;6.82;;;;;;;38.07;45.14;100652.75;4863019;29;20331;-75
2021/06/30 11:35:25;;;;;;;8.18;7.38;;;;;;;38.22;47.01;100661.66;4863313;29;20041;-75
2021/06/30 11:38:15;;;;;;;8.30;7.50;;;;;;;38.25;47.88;100649.44;4850378;29;20124;-75
2021/06/30 11:41:10;;;;;;;9.48;7.05;;;;;;;37.79;46.07;100649.25;4850684;29;20025;-76
2021/06/30 11:43:56;;;;;;;8.18;7.35;;;;;;;37.92;46.14;100643.81;4850484;29;20119;-76
2021/06/30 11:46:42;;;;;;;8.93;8.10;;;;;;;36.78;48.41;100636.31;4850315;29;20049;-76
2021/06/30 11:49:28;;;;;;;8.50;7.63;;;;;;;37.99;47.06;100632.91;4864001;29;20116;-77
2021/06/30 11:52:14;;;;;;;9.98;8.07;;;;;;;37.94;47.21;100633.53;4863079;29;20120;-76
2021/06/30 11:55:00;;;;;;;10.18;8.25;;;;;;;37.37;48.35;100643.09;4862800;29;20030;-75
2021/06/30 11:57:49;;;;;;;12.68;8.88;;;;;;;38.07;50.54;100636.34;4862398;29;20065;-75
2021/06/30 12:00:41;;;;;;;9.80;8.40;;;;;;;37.94;49.12;100636.25;4849347;29;20033;-75
2021/06/30 12:03:27;;;;;;;9.93;8.48;;;;;;;37.84;46.46;100632.19;4849920;29;20025;-75
2021/06/30 12:06:25;;;;;;;11.82;8.85;;;;;;;37.76;50.43;100633.22;4862823;29;20344;-75
2021/06/30 12:09:31;;;;;;;10.50;8.40;;;;;;;38.27;51.13;100636.38;4862234;29;20037;-75
2021/06/30 12:12:17;;;;;;;25.15;9.25;;;;;;;38.84;51.84;100637.53;4863794;29;20476;-75
2021/06/30 12:15:04;;;;;;;10.18;8.75;;;;;;;37.85;56.38;100622.97;4862805;29;20033;-75
2021/06/30 12:18:08;;;;;;;14.85;9.40;;;;;;;38.27;54.77;100629.03;4863239;29;20112;-75
2021/06/30 12:20:54;;;;;;;11.07;9.43;;;;;;;38.62;55.66;100627.81;4861900;29;20029;-75
2021/06/30 12:23:40;;;;;;;11.05;8.75;;;;;;;38.35;54.47;100617.88;4862651;29;20086;-75
2021/06/30 12:26:25;;;;;;;10.25;8.85;;;;;;;37.85;59.68;100615.56;4862420;29;20065;-75
2021/06/30 12:29:18;;;;;;;10.30;9.10;;;;;;;37.71;59.85;100608.38;4862609;29;20463;-75
2021/06/30 12:32:08;;;;;;;11.07;9.15;;;;;;;37.71;58.59;100604.78;4862180;29;20045;-75
2021/06/30 12:35:04;;;;;;;10.00;8.88;;;;;;;38.23;58.84;100611.31;4862411;29;20112;-75
2021/06/30 12:37:58;;;;;;;9.68;8.68;;;;;;;37.87;57.51;100608.03;4861841;29;20101;-75